Time;durP1;ratioP1;P1;durP2;ratioP2;P2;SDS_P1;SDS_P2;PMS_P1;PMS_P2;Temp;Humidity;BMP_temperature;BMP_pressure;BME280_temperature;BME280_humidity;BME280_pressure;Samples;Min_cycle;Max_cycle;Signal;HPM_P1;HPM_P2
2022/09/15 00:01:35;;;;;;;25.60;12.65;;;14.40;99.90;;;;;;5013701;28;20207;-63
2022/09/15 00:04:02;;;;;;;26.10;12.95;;;14.40;99.90;;;;;;5012111;28;20183;-64
2022/09/15 00:06:28;;;;;;;22.70;11.82;;;14.50;99.90;;;;;;5029664;28;20191;-64
2022/09/15 00:08:54;;;;;;;24.95;13.77;;;14.40;99.90;;;;;;5021303;28;20198;-64
2022/09/15 00:11:27;;;;;;;27.48;13.40;;;14.40;99.90;;;;;;5014293;28;20191;-63
2022/09/15 00:13:54;;;;;;;23.98;11.88;;;14.40;99.90;;;;;;5013804;28;20275;-64
2022/09/15 00:16:22;;;;;;;23.85;14.35;;;14.50;99.90;;;;;;5012968;28;20270;-63
2022/09/15 00:18:48;;;;;;;22.05;14.10;;;14.50;99.90;;;;;;5013181;28;20179;-64
2022/09/15 00:21:20;;;;;;;25.38;11.95;;;14.50;99.90;;;;;;5011849;28;20222;-63
2022/09/15 00:23:46;;;;;;;24.95;12.60;;;14.50;99.90;;;;;;5015073;28;20184;-63
2022/09/15 00:26:14;;;;;;;20.27;12.85;;;14.40;99.90;;;;;;5032124;28;20267;-63
2022/09/15 00:28:40;;;;;;;21.73;12.43;;;14.40;99.90;;;;;;5015371;28;20183;-63
2022/09/15 00:31:09;;;;;;;24.38;14.45;;;14.30;99.90;;;;;;5024758;28;20244;-63
2022/09/15 00:33:35;;;;;;;19.90;12.65;;;14.30;99.90;;;;;;5031921;28;20190;-63
2022/09/15 00:36:05;;;;;;;21.60;13.27;;;14.30;99.90;;;;;;5012308;28;20220;-63
2022/09/15 00:38:32;;;;;;;18.90;11.73;;;14.20;99.90;;;;;;5020720;28;20179;-63
2022/09/15 00:40:59;;;;;;;19.90;11.23;;;14.20;99.90;;;;;;5024653;28;20242;-63
2022/09/15 00:43:45;;;;;;;24.95;12.82;;;14.10;99.90;;;;;;5013340;28;20631;-63
2022/09/15 00:46:12;;;;;;;22.15;10.88;;;14.10;99.90;;;;;;5014513;28;20636;-63
2022/09/15 00:48:46;;;;;;;23.38;12.00;;;14.00;99.90;;;;;;5024525;28;20238;-63
2022/09/15 00:51:15;;;;;;;27.58;14.27;;;14.00;99.90;;;;;;5013099;28;20690;-63
2022/09/15 00:53:41;;;;;;;27.38;14.88;;;14.00;99.90;;;;;;5013248;28;20183;-63
2022/09/15 00:56:11;;;;;;;24.63;13.73;;;14.00;99.90;;;;;;5028758;28;20537;-64
2022/09/15 00:58:46;;;;;;;21.13;12.63;;;14.00;99.90;;;;;;5031813;28;20228;-63
2022/09/15 01:01:14;;;;;;;22.48;12.43;;;14.00;99.90;;;;;;5014455;28;20205;-63
2022/09/15 01:03:41;;;;;;;21.95;14.80;;;13.90;99.90;;;;;;5021678;28;20190;-63
2022/09/15 01:06:31;;;;;;;24.38;14.77;;;13.90;99.90;;;;;;5011908;28;20203;-63
2022/09/15 01:09:07;;;;;;;23.85;11.40;;;13.90;99.90;;;;;;5014349;28;20187;-64
2022/09/15 01:11:34;;;;;;;22.33;12.82;;;13.90;99.90;;;;;;5021023;28;20219;-63
2022/09/15 01:14:00;;;;;;;22.67;13.57;;;13.90;99.90;;;;;;5047751;28;20188;-63
2022/09/15 01:17:00;;;;;;;26.40;14.55;;;13.90;99.90;;;;;;5022599;28;20241;-64
2022/09/15 01:20:05;;;;;;;21.10;12.98;;;13.90;99.90;;;;;;5012975;28;20650;-64
2022/09/15 01:22:58;;;;;;;26.77;14.70;;;13.80;99.90;;;;;;5020943;28;20208;-63
2022/09/15 01:26:03;;;;;;;21.48;13.23;;;13.80;99.90;;;;;;5021833;28;20183;-64
2022/09/15 01:29:02;;;;;;;23.25;14.57;;;13.80;99.90;;;;;;5016641;28;20183;-63
2022/09/15 01:34:40;;;;;;;22.40;12.93;;;13.70;99.90;;;;;;5014234;28;20222;-63
2022/09/15 01:37:11;;;;;;;17.77;12.85;;;13.70;99.90;;;;;;5018712;28;20193;-64
2022/09/15 01:39:42;;;;;;;23.90;12.63;;;13.70;99.90;;;;;;5023716;28;20203;-64
2022/09/15 01:42:11;;;;;;;21.60;12.57;;;13.70;99.90;;;;;;5029852;28;20238;-65
2022/09/15 01:44:50;;;;;;;23.55;14.68;;;13.70;99.90;;;;;;5023122;28;20179;-63
2022/09/15 01:47:18;;;;;;;31.08;15.52;;;13.70;99.90;;;;;;5028219;28;20472;-63
2022/09/15 01:49:53;;;;;;;26.50;15.23;;;13.80;99.90;;;;;;5035213;28;20186;-64
2022/09/15 01:52:22;;;;;;;24.02;13.30;;;13.80;99.90;;;;;;5033794;28;20708;-64
2022/09/15 01:54:52;;;;;;;21.00;13.88;;;13.80;99.90;;;;;;5028104;28;20190;-64
2022/09/15 01:57:21;;;;;;;28.85;15.52;;;13.90;99.90;;;;;;5015439;28;20698;-64
2022/09/15 01:59:48;;;;;;;28.77;14.75;;;14.00;99.90;;;;;;5017931;28;20714;-64
2022/09/15 02:02:19;;;;;;;31.58;16.20;;;14.10;99.90;;;;;;5023167;28;20249;-64
2022/09/15 02:04:49;;;;;;;27.45;13.57;;;14.10;99.90;;;;;;5018831;28;20179;-64
2022/09/15 02:07:35;;;;;;;47.63;19.65;;;14.10;99.90;;;;;;5030846;28;20198;-64
2022/09/15 02:10:20;;;;;;;29.05;15.27;;;14.10;99.90;;;;;;5025759;28;20171;-63
2022/09/15 02:13:15;;;;;;;20.90;15.23;;;14.20;99.90;;;;;;5015921;28;20252;-64
2022/09/15 02:15:50;;;;;;;29.15;16.15;;;14.20;99.90;;;;;;5017885;28;20187;-63
2022/09/15 02:18:33;;;;;;;28.42;15.18;;;14.30;99.90;;;;;;5033606;28;20182;-63
2022/09/15 02:21:10;;;;;;;27.88;14.13;;;14.30;99.90;;;;;;5019798;28;20186;-64
2022/09/15 02:23:42;;;;;;;30.02;13.02;;;14.30;99.90;;;;;;5034384;28;20174;-64
2022/09/15 02:26:14;;;;;;;29.73;17.05;;;14.30;99.90;;;;;;5020053;28;20179;-64
2022/09/15 02:28:42;;;;;;;31.10;15.13;;;14.30;99.90;;;;;;5016103;28;20516;-63
2022/09/15 02:31:11;;;;;;;38.10;16.30;;;14.30;99.90;;;;;;5057320;28;20187;-64
2022/09/15 02:33:43;;;;;;;25.38;14.07;;;14.30;99.90;;;;;;5026367;28;20175;-64
2022/09/15 02:36:12;;;;;;;25.33;13.25;;;14.30;99.90;;;;;;5015192;28;20173;-63
2022/09/15 02:38:42;;;;;;;20.48;13.57;;;14.40;99.90;;;;;;5017045;28;20183;-63
2022/09/15 02:41:08;;;;;;;25.75;12.52;;;14.40;99.90;;;;;;5019562;28;20541;-63
2022/09/15 02:43:42;;;;;;;22.40;12.88;;;14.40;99.90;;;;;;5014277;28;20274;-63
2022/09/15 02:46:08;;;;;;;25.05;13.38;;;14.40;99.90;;;;;;5016842;28;20715;-63
2022/09/15 02:48:34;;;;;;;23.00;13.52;;;14.50;99.90;;;;;;5026576;28;20183;-64
2022/09/15 02:51:00;;;;;;;18.50;11.63;;;14.50;99.90;;;;;;5015721;28;20191;-64
2022/09/15 02:53:26;;;;;;;26.42;15.38;;;14.50;99.90;;;;;;5016654;28;20234;-64
2022/09/15 02:55:51;;;;;;;21.88;11.32;;;14.50;99.90;;;;;;5018212;28;20188;-65
2022/09/15 02:58:17;;;;;;;20.38;12.10;;;14.50;99.90;;;;;;5015083;28;20585;-64
2022/09/15 03:00:43;;;;;;;23.17;11.95;;;14.50;99.90;;;;;;5059253;28;20178;-64
2022/09/15 03:03:09;;;;;;;21.00;12.15;;;14.50;99.90;;;;;;5046031;28;20203;-64
2022/09/15 03:05:35;;;;;;;18.35;10.40;;;14.50;99.90;;;;;;5027319;28;20193;-64
2022/09/15 03:08:01;;;;;;;22.80;11.02;;;14.60;99.90;;;;;;5027824;28;20236;-63
2022/09/15 03:10:27;;;;;;;18.88;12.07;;;14.60;99.90;;;;;;5017560;28;20237;-64
2022/09/15 03:12:53;;;;;;;19.65;11.38;;;14.50;99.90;;;;;;5015154;28;20249;-63
2022/09/15 03:15:22;;;;;;;25.25;12.20;;;14.60;99.90;;;;;;5014598;28;20205;-64
2022/09/15 03:17:49;;;;;;;17.02;10.00;;;14.60;99.90;;;;;;5013804;28;20210;-64
2022/09/15 03:20:17;;;;;;;18.67;9.57;;;14.70;99.90;;;;;;5014090;28;20551;-63
2022/09/15 03:22:43;;;;;;;19.42;10.93;;;14.70;99.90;;;;;;5015156;28;20203;-64
2022/09/15 03:25:10;;;;;;;19.88;10.93;;;14.70;99.90;;;;;;5014245;28;20183;-63
2022/09/15 03:27:36;;;;;;;20.80;10.77;;;14.70;99.90;;;;;;5014499;28;20192;-65
2022/09/15 03:30:04;;;;;;;19.45;12.73;;;14.70;99.90;;;;;;5017331;28;20207;-64
2022/09/15 03:32:29;;;;;;;23.10;10.45;;;14.80;99.90;;;;;;5015856;28;20191;-64
2022/09/15 03:34:55;;;;;;;21.95;10.48;;;14.80;99.90;;;;;;5015408;28;20191;-63
2022/09/15 03:37:21;;;;;;;22.00;12.30;;;14.80;99.90;;;;;;5053800;28;20190;-64
2022/09/15 03:39:47;;;;;;;19.05;12.60;;;14.80;99.90;;;;;;5015924;28;20237;-64
2022/09/15 03:42:13;;;;;;;20.15;10.73;;;14.80;99.90;;;;;;5014370;28;20230;-64
2022/09/15 03:44:39;;;;;;;19.20;10.75;;;14.70;99.90;;;;;;5013497;28;20629;-63
2022/09/15 03:47:05;;;;;;;23.25;11.45;;;14.70;99.90;;;;;;5014146;28;20195;-64
2022/09/15 03:49:31;;;;;;;18.80;10.20;;;14.70;99.90;;;;;;5013900;28;20187;-64
2022/09/15 03:51:57;;;;;;;27.08;12.88;;;14.60;99.90;;;;;;5014701;28;20202;-63
2022/09/15 03:54:23;;;;;;;17.52;11.65;;;14.70;99.90;;;;;;5021844;28;20234;-63
2022/09/15 03:56:50;;;;;;;18.75;10.50;;;14.70;99.90;;;;;;5013945;28;20637;-64
2022/09/15 03:59:17;;;;;;;21.02;10.75;;;14.70;99.90;;;;;;5052223;28;20695;-64
2022/09/15 04:01:44;;;;;;;15.50;9.63;;;14.70;99.90;;;;;;5012758;28;20217;-64
2022/09/15 04:04:10;;;;;;;19.27;11.43;;;14.70;99.90;;;;;;5015018;28;20191;-64
2022/09/15 04:06:37;;;;;;;22.63;11.15;;;14.60;99.90;;;;;;5021874;28;20244;-63
2022/09/15 04:09:03;;;;;;;19.10;10.40;;;14.70;99.90;;;;;;5013275;28;20611;-63
2022/09/15 04:11:30;;;;;;;20.65;11.07;;;14.70;99.90;;;;;;5013734;28;20277;-64
2022/09/15 04:13:56;;;;;;;20.05;10.65;;;14.70;99.90;;;;;;5015989;28;20191;-64
2022/09/15 04:16:23;;;;;;;19.58;12.80;;;14.70;99.90;;;;;;5044697;28;20179;-64
2022/09/15 04:18:51;;;;;;;20.55;11.38;;;14.70;99.90;;;;;;5015549;28;20206;-64
2022/09/15 04:21:20;;;;;;;22.63;10.50;;;14.80;99.90;;;;;;5012973;28;20176;-64
2022/09/15 04:23:46;;;;;;;27.23;12.18;;;14.80;99.90;;;;;;5014151;28;20641;-64
2022/09/15 04:26:20;;;;;;;25.67;12.85;;;14.70;99.90;;;;;;5012728;28;20206;-65
2022/09/15 04:28:46;;;;;;;22.73;11.57;;;14.70;99.90;;;;;;5016509;28;20187;-64
2022/09/15 04:31:14;;;;;;;18.83;13.32;;;14.80;99.90;;;;;;5023662;28;20610;-63
2022/09/15 04:33:41;;;;;;;26.35;12.27;;;14.70;99.90;;;;;;5017563;28;20179;-63
2022/09/15 04:36:17;;;;;;;17.55;11.05;;;14.70;99.90;;;;;;5015754;28;20194;-63
2022/09/15 04:38:43;;;;;;;22.70;12.80;;;14.60;99.90;;;;;;5013664;28;20206;-64
2022/09/15 04:41:09;;;;;;;20.38;11.05;;;14.50;99.90;;;;;;5021542;28;20266;-63
2022/09/15 04:43:35;;;;;;;26.85;12.45;;;14.50;99.90;;;;;;5020173;28;20290;-64
2022/09/15 04:46:01;;;;;;;22.15;12.63;;;14.50;99.90;;;;;;5020621;28;20194;-63
2022/09/15 04:48:27;;;;;;;16.50;11.18;;;14.40;99.90;;;;;;5020416;28;20194;-63
2022/09/15 04:50:53;;;;;;;25.40;12.75;;;14.40;99.90;;;;;;5014225;28;20183;-64
2022/09/15 04:53:19;;;;;;;25.65;12.85;;;14.30;99.90;;;;;;5022885;28;20218;-63
2022/09/15 04:55:45;;;;;;;29.02;13.27;;;14.30;99.90;;;;;;5025904;28;20598;-63
2022/09/15 04:58:11;;;;;;;25.00;13.95;;;14.20;99.90;;;;;;5033713;28;20182;-63
2022/09/15 05:00:42;;;;;;;23.60;12.55;;;14.20;99.90;;;;;;5017801;28;20195;-63
2022/09/15 05:03:12;;;;;;;26.48;14.18;;;14.10;99.90;;;;;;5025036;28;20198;-63
2022/09/15 05:05:39;;;;;;;20.33;12.55;;;14.10;99.90;;;;;;5031234;28;20189;-64
2022/09/15 05:08:06;;;;;;;22.23;12.68;;;14.10;99.90;;;;;;5016660;28;20191;-63
2022/09/15 05:10:32;;;;;;;18.88;11.73;;;14.00;99.90;;;;;;5031764;28;20183;-63
2022/09/15 05:12:58;;;;;;;22.38;14.02;;;14.00;99.90;;;;;;5024114;28;20648;-63
2022/09/15 05:15:24;;;;;;;20.25;11.80;;;14.00;99.90;;;;;;5034223;28;20190;-63
2022/09/15 05:17:50;;;;;;;23.13;12.85;;;13.90;99.90;;;;;;5020755;28;20183;-64
2022/09/15 05:20:16;;;;;;;26.25;11.80;;;13.90;99.90;;;;;;5024652;28;20182;-63
2022/09/15 05:22:42;;;;;;;22.45;13.73;;;13.90;99.90;;;;;;5030050;28;20211;-63
2022/09/15 05:25:09;;;;;;;20.80;12.32;;;13.80;99.90;;;;;;5022677;28;20194;-64
2022/09/15 05:27:34;;;;;;;23.52;12.00;;;13.80;99.90;;;;;;5016564;28;20656;-63
2022/09/15 05:30:00;;;;;;;25.77;12.80;;;13.90;99.90;;;;;;5017832;28;20219;-63
2022/09/15 05:32:26;;;;;;;21.90;12.18;;;13.90;99.90;;;;;;4982514;28;20191;-64
2022/09/15 05:34:52;;;;;;;23.27;13.60;;;13.80;99.90;;;;;;5015966;28;20598;-64
2022/09/15 05:37:18;;;;;;;20.05;11.25;;;13.80;99.90;;;;;;5033866;28;20191;-64
2022/09/15 05:39:43;;;;;;;19.25;13.20;;;13.90;99.90;;;;;;5016118;28;20198;-64
2022/09/15 05:42:09;;;;;;;23.73;12.80;;;13.90;99.90;;;;;;5030192;28;20226;-64
2022/09/15 05:44:35;;;;;;;22.38;12.73;;;13.90;99.90;;;;;;5031461;28;20222;-64
2022/09/15 05:47:00;;;;;;;23.83;13.35;;;13.90;99.90;;;;;;5031403;28;20262;-63
2022/09/15 05:49:28;;;;;;;20.38;12.32;;;13.90;99.90;;;;;;5018571;28;20241;-63
2022/09/15 05:51:54;;;;;;;23.35;13.02;;;13.90;99.90;;;;;;5015794;28;20223;-63
2022/09/15 05:54:19;;;;;;;17.63;11.57;;;13.90;99.90;;;;;;5019743;28;20254;-63
2022/09/15 05:56:45;;;;;;;26.30;12.68;;;14.00;99.90;;;;;;5026118;28;20241;-63
2022/09/15 05:59:11;;;;;;;18.25;10.82;;;14.00;99.90;;;;;;5029470;28;20195;-63
2022/09/15 06:01:36;;;;;;;27.17;13.35;;;14.10;99.90;;;;;;5024999;28;20211;-63
2022/09/15 06:04:02;;;;;;;26.40;15.27;;;14.20;99.90;;;;;;5027651;28;20515;-63
2022/09/15 06:06:30;;;;;;;25.80;13.05;;;14.20;99.90;;;;;;5029333;28;20269;-63
2022/09/15 06:08:57;;;;;;;25.92;14.25;;;14.30;99.90;;;;;;5031272;28;20252;-63
2022/09/15 06:11:28;;;;;;;19.30;11.98;;;14.30;99.90;;;;;;5027892;28;20187;-64
2022/09/15 06:13:54;;;;;;;22.42;14.55;;;14.40;99.90;;;;;;5033376;28;20179;-63
2022/09/15 06:16:22;;;;;;;27.30;15.50;;;14.40;99.90;;;;;;5031175;28;20586;-63
2022/09/15 06:18:49;;;;;;;25.27;13.40;;;14.40;99.90;;;;;;5031568;28;20187;-64
2022/09/15 06:21:23;;;;;;;23.67;13.45;;;14.40;99.90;;;;;;5031419;28;20645;-63
2022/09/15 06:23:53;;;;;;;22.23;12.57;;;14.50;99.90;;;;;;5030439;28;20538;-64
2022/09/15 06:26:19;;;;;;;24.73;13.57;;;14.50;99.90;;;;;;5030107;28;20179;-63
2022/09/15 06:28:51;;;;;;;25.55;13.48;;;14.50;99.90;;;;;;5030166;28;20185;-62
2022/09/15 06:31:17;;;;;;;24.50;13.77;;;14.70;99.90;;;;;;5031479;28;20178;-62
2022/09/15 06:33:46;;;;;;;36.53;16.55;;;14.70;99.90;;;;;;5020153;28;20198;-62
2022/09/15 06:36:13;;;;;;;24.70;16.48;;;14.80;99.90;;;;;;5025857;28;20190;-63
2022/09/15 06:38:39;;;;;;;29.90;15.07;;;14.90;99.90;;;;;;5030083;28;20186;-63
2022/09/15 06:41:06;;;;;;;25.42;15.35;;;15.00;99.90;;;;;;5016317;28;20175;-64
2022/09/15 06:43:32;;;;;;;25.42;15.18;;;15.20;99.90;;;;;;5062118;28;20206;-65
2022/09/15 06:46:19;;;;;;;23.77;13.60;;;15.20;99.90;;;;;;5018591;28;20182;-62
2022/09/15 06:48:45;;;;;;;27.85;16.15;;;15.20;99.90;;;;;;5014393;28;20625;-63
2022/09/15 06:51:11;;;;;;;25.33;15.23;;;15.40;99.90;;;;;;5022573;28;20723;-63
2022/09/15 06:53:38;;;;;;;25.45;14.18;;;15.50;99.90;;;;;;5019291;28;20536;-64
2022/09/15 06:56:09;;;;;;;27.48;15.88;;;15.60;99.90;;;;;;5028065;28;20200;-63
2022/09/15 06:58:36;;;;;;;24.73;15.18;;;15.70;99.90;;;;;;5014662;28;20186;-63
2022/09/15 07:01:11;;;;;;;29.60;15.57;;;15.80;99.90;;;;;;5014061;28;20183;-63
2022/09/15 07:03:38;;;;;;;49.70;17.52;;;15.90;99.90;;;;;;5020013;28;20242;-65
2022/09/15 07:06:04;;;;;;;38.70;19.17;;;16.20;99.90;;;;;;5024459;28;20194;-63
2022/09/15 07:08:30;;;;;;;31.70;17.77;;;16.30;99.90;;;;;;5018129;28;20640;-63
2022/09/15 07:10:56;;;;;;;25.65;15.85;;;16.40;99.90;;;;;;5015352;28;20190;-62
2022/09/15 07:13:22;;;;;;;56.15;16.80;;;16.30;99.90;;;;;;5020034;28;20203;-62
2022/09/15 07:16:01;;;;;;;27.48;16.58;;;16.30;99.90;;;;;;5019281;28;20245;-62
2022/09/15 07:18:27;;;;;;;31.25;16.60;;;16.30;99.90;;;;;;5024996;28;20233;-63
2022/09/15 07:21:02;;;;;;;25.35;16.27;;;16.50;99.90;;;;;;5025899;28;20639;-63
2022/09/15 07:23:27;;;;;;;29.65;18.45;;;16.60;99.90;;;;;;5023541;28;20213;-63
2022/09/15 07:26:05;;;;;;;24.48;15.48;;;16.70;99.90;;;;;;5017072;28;20183;-63
2022/09/15 07:28:30;;;;;;;24.20;15.32;;;16.80;99.90;;;;;;5058162;28;20171;-63
2022/09/15 07:30:56;;;;;;;26.08;15.07;;;16.90;99.90;;;;;;5016818;28;20527;-63
2022/09/15 07:33:22;;;;;;;27.25;16.50;;;16.90;99.90;;;;;;5026473;28;20202;-62
2022/09/15 07:35:47;;;;;;;27.40;15.07;;;17.00;99.90;;;;;;5023515;28;20240;-63
2022/09/15 07:38:13;;;;;;;24.67;14.93;;;17.10;99.90;;;;;;5029184;28;20218;-63
2022/09/15 07:40:39;;;;;;;20.23;14.35;;;17.00;99.90;;;;;;5022657;28;20187;-63
2022/09/15 07:43:05;;;;;;;23.52;13.27;;;16.90;99.90;;;;;;5022233;28;20613;-63
2022/09/15 07:45:31;;;;;;;24.10;13.90;;;17.00;99.90;;;;;;5023393;28;20647;-63
2022/09/15 07:47:57;;;;;;;21.55;12.52;;;17.20;99.90;;;;;;5031487;28;20178;-63
2022/09/15 07:50:23;;;;;;;28.45;16.17;;;17.30;99.90;;;;;;5016969;28;20187;-63
2022/09/15 07:52:48;;;;;;;26.05;14.30;;;17.30;99.90;;;;;;5016878;28;20722;-62
2022/09/15 07:55:14;;;;;;;25.15;14.77;;;17.30;99.90;;;;;;5015312;28;20182;-62
2022/09/15 07:57:40;;;;;;;20.30;13.05;;;17.30;99.90;;;;;;5028055;28;20198;-62
2022/09/15 08:00:06;;;;;;;27.15;15.32;;;17.50;99.90;;;;;;5029315;28;20550;-62
2022/09/15 08:02:32;;;;;;;24.23;15.82;;;17.60;99.90;;;;;;5017493;28;20198;-62
2022/09/15 08:04:58;;;;;;;25.65;13.35;;;17.80;99.90;;;;;;5014090;28;20663;-63
2022/09/15 08:07:23;;;;;;;20.05;11.75;;;17.80;99.90;;;;;;5019908;28;20184;-62
2022/09/15 08:09:49;;;;;;;32.90;11.93;;;17.90;99.90;;;;;;5018739;28;20189;-62
2022/09/15 08:12:15;;;;;;;17.17;10.82;;;18.00;99.90;;;;;;5030230;28;20228;-63
2022/09/15 08:14:41;;;;;;;19.67;10.88;;;18.10;99.90;;;;;;5014019;28;20179;-62
2022/09/15 08:17:07;;;;;;;20.70;9.75;;;18.30;99.90;;;;;;5017316;28;20630;-62
2022/09/15 08:19:34;;;;;;;17.10;11.55;;;18.50;99.90;;;;;;5045957;28;20241;-62
2022/09/15 08:22:00;;;;;;;27.00;10.73;;;18.70;99.90;;;;;;5023820;28;20211;-62
2022/09/15 08:24:27;;;;;;;18.42;11.48;;;19.20;99.90;;;;;;5024193;28;20190;-62
2022/09/15 08:26:52;;;;;;;20.73;13.43;;;20.30;99.90;;;;;;5025065;28;20183;-62
2022/09/15 08:29:18;;;;;;;16.35;12.00;;;20.80;99.90;;;;;;5015855;28;20229;-62
2022/09/15 08:31:45;;;;;;;14.07;10.75;;;20.80;99.90;;;;;;5026125;28;20252;-63
2022/09/15 08:34:12;;;;;;;18.30;9.95;;;21.40;99.90;;;;;;5015423;28;20645;-62
2022/09/15 08:36:38;;;;;;;11.15;8.52;;;21.90;99.90;;;;;;5045035;28;20535;-63
2022/09/15 08:39:05;;;;;;;10.75;6.65;;;21.90;99.90;;;;;;5022442;28;20183;-62
2022/09/15 08:41:48;;;;;;;12.82;7.28;;;21.90;99.90;;;;;;5023342;28;20207;-62
2022/09/15 08:44:22;;;;;;;10.20;5.80;;;21.80;99.90;;;;;;5014879;28;20176;-62
2022/09/15 08:46:55;;;;;;;7.60;5.65;;;21.90;99.90;;;;;;5012785;28;20178;-62
2022/09/15 08:49:24;;;;;;;6.47;5.10;;;21.80;99.90;;;;;;5013209;28;20580;-63
2022/09/15 08:51:51;;;;;;;6.93;5.13;;;21.80;99.90;;;;;;5011897;28;20183;-62
2022/09/15 08:54:26;;;;;;;15.90;5.60;;;21.70;99.90;;;;;;5015307;28;20287;-62
2022/09/15 08:56:52;;;;;;;13.93;6.78;;;21.50;99.90;;;;;;5024677;28;20703;-63
2022/09/15 08:59:19;;;;;;;10.13;5.38;;;21.30;99.90;;;;;;5044480;28;20175;-62
2022/09/15 09:01:58;;;;;;;14.27;5.38;;;21.10;99.90;;;;;;5023639;28;20551;-62
2022/09/15 09:05:01;;;;;;;10.23;5.45;;;20.90;99.90;;;;;;5012595;28;20213;-62
2022/09/15 09:07:33;;;;;;;8.43;6.50;;;20.60;99.90;;;;;;5026304;28;20190;-63
2022/09/15 09:10:05;;;;;;;7.50;4.93;;;20.50;99.90;;;;;;5044914;28;20179;-62
2022/09/15 09:12:34;;;;;;;5.68;5.18;;;20.30;99.90;;;;;;5020539;28;20202;-62
2022/09/15 09:15:18;;;;;;;15.65;6.15;;;20.10;99.90;;;;;;5012521;28;20192;-62
2022/09/15 09:18:45;;;;;;;9.85;5.85;;;20.00;99.90;;;;;;5011905;28;20587;-62
2022/09/15 09:21:28;;;;;;;12.82;6.22;;;20.10;99.90;;;;;;5005702;28;20478;-62
2022/09/15 09:24:04;;;;;;;7.00;5.13;;;20.10;99.90;;;;;;5001969;28;20183;-62
2022/09/15 09:26:34;;;;;;;8.02;6.35;;;20.20;99.90;;;;;;5019181;28;20195;-62
2022/09/15 09:29:06;;;;;;;11.95;6.05;;;20.40;99.90;;;;;;5015958;28;20233;-63
2022/09/15 09:31:34;;;;;;;9.05;5.75;;;20.30;99.90;;;;;;5019002;28;20184;-62
2022/09/15 09:34:15;;;;;;;9.32;5.60;;;20.50;99.90;;;;;;5020300;28;20175;-62
2022/09/15 09:36:41;;;;;;;15.93;5.35;;;20.80;99.90;;;;;;5022446;28;20203;-62
2022/09/15 09:39:12;;;;;;;10.10;6.78;;;21.10;99.90;;;;;;5013714;28;20195;-62
2022/09/15 09:41:40;;;;;;;9.23;5.95;;;21.30;99.90;;;;;;5019138;28;20230;-65
2022/09/15 09:44:12;;;;;;;26.73;7.13;;;21.30;99.90;;;;;;5054184;28;20281;-64
2022/09/15 09:46:39;;;;;;;8.38;4.88;;;21.40;99.90;;;;;;5027628;28;20258;-64
2022/09/15 09:49:21;;;;;;;8.95;5.60;;;21.40;99.90;;;;;;5020971;28;20188;-64
2022/09/15 09:51:51;;;;;;;8.18;5.25;;;21.50;99.90;;;;;;5026111;28;20635;-64
2022/09/15 09:54:19;;;;;;;7.13;5.13;;;21.60;99.90;;;;;;5015923;28;20179;-66
2022/09/15 09:56:49;;;;;;;3.58;2.80;;;21.90;99.90;;;;;;5046615;28;20254;-62
2022/09/15 09:59:44;;;;;;;3.17;2.20;;;21.90;99.90;;;;;;5023682;28;20650;-62
2022/09/15 10:02:09;;;;;;;3.65;2.35;;;22.00;99.90;;;;;;5026040;28;20731;-61
2022/09/15 10:04:39;;;;;;;4.18;3.25;;;21.90;99.90;;;;;;5026094;28;20282;-61
2022/09/15 10:07:06;;;;;;;2.60;2.40;;;22.00;99.90;;;;;;5020160;28;20218;-62
2022/09/15 10:09:32;;;;;;;7.07;3.67;;;22.20;99.90;;;;;;5017695;28;20265;-62
2022/09/15 10:12:00;;;;;;;6.38;2.28;;;22.40;99.90;;;;;;5014464;28;20656;-61
2022/09/15 10:14:29;;;;;;;6.93;3.00;;;22.50;99.90;;;;;;5015788;28;20179;-62
2022/09/15 10:17:15;;;;;;;3.47;1.70;;;22.80;99.90;;;;;;5016643;28;20175;-62
2022/09/15 10:19:53;;;;;;;2.55;1.60;;;23.00;99.90;;;;;;5025936;28;20175;-62
2022/09/15 10:22:34;;;;;;;1.90;1.80;;;23.10;99.90;;;;;;5020059;28;20318;-62
2022/09/15 10:25:02;;;;;;;3.25;1.85;;;22.90;99.90;;;;;;5016261;28;20175;-62
2022/09/15 10:27:32;;;;;;;1.38;1.33;;;23.10;99.90;;;;;;5016350;28;20191;-62
2022/09/15 10:30:13;;;;;;;3.85;1.70;;;23.20;99.90;;;;;;5020501;28;20191;-62
2022/09/15 10:32:41;;;;;;;5.97;1.80;;;23.30;99.90;;;;;;5033861;28;20179;-61
2022/09/15 10:35:12;;;;;;;2.85;1.98;;;23.30;99.90;;;;;;5031942;28;20190;-62
2022/09/15 10:38:12;;;;;;;5.72;2.08;;;23.20;99.90;;;;;;5033597;28;20232;-61
2022/09/15 10:40:50;;;;;;;4.18;2.25;;;22.80;99.90;;;;;;5026335;28;20189;-61
2022/09/15 10:43:22;;;;;;;2.65;2.45;;;22.60;99.90;;;;;;5034823;28;20210;-61
2022/09/15 10:45:51;;;;;;;6.90;2.45;;;22.20;99.90;;;;;;5027958;28;20183;-62
2022/09/15 10:48:35;;;;;;;4.38;2.47;;;21.70;99.90;;;;;;5015227;28;20539;-62
2022/09/15 10:51:21;;;;;;;5.88;3.70;;;21.60;99.90;;;;;;5014944;28;20175;-64
2022/09/15 10:54:07;;;;;;;7.55;3.20;;;21.20;99.90;;;;;;5013277;28;20199;-64
2022/09/15 10:56:39;;;;;;;7.47;3.40;;;21.30;99.90;;;;;;5014656;28;20179;-64
2022/09/15 10:59:14;;;;;;;5.75;3.92;;;21.50;99.90;;;;;;5020001;28;20175;-64
2022/09/15 11:01:51;;;;;;;6.07;3.20;;;21.60;99.90;;;;;;5014549;28;20213;-64
2022/09/15 11:04:38;;;;;;;5.47;3.17;;;21.50;99.90;;;;;;5021546;28;20182;-64
2022/09/15 11:07:04;;;;;;;3.83;3.30;;;21.50;99.90;;;;;;5032287;28;20193;-64
2022/09/15 11:09:41;;;;;;;8.75;3.65;;;21.30;99.90;;;;;;5027797;28;20270;-64
2022/09/15 11:12:15;;;;;;;3.40;3.15;;;21.20;99.90;;;;;;5023626;28;20209;-64
2022/09/15 11:15:14;;;;;;;5.93;2.97;;;21.10;99.90;;;;;;5013803;28;20175;-64
2022/09/15 11:17:47;;;;;;;12.20;3.28;;;21.00;99.90;;;;;;5028419;28;20178;-63
2022/09/15 11:20:38;;;;;;;7.55;3.10;;;21.00;99.90;;;;;;5033240;28;20694;-62
2022/09/15 11:23:12;;;;;;;3.78;2.88;;;20.90;99.90;;;;;;5024528;28;20217;-61
2022/09/15 11:26:03;;;;;;;3.35;3.03;;;20.80;99.90;;;;;;5021318;28;20505;-62
2022/09/15 11:28:36;;;;;;;3.72;1.63;;;20.80;99.90;;;;;;5017584;28;20187;-61
2022/09/15 11:31:08;;;;;;;5.30;2.03;;;20.50;99.90;;;;;;5017618;28;20641;-61
2022/09/15 11:33:42;;;;;;;8.82;1.25;;;20.30;99.90;;;;;;5026480;28;20179;-62
2022/09/15 11:36:39;;;;;;;1.17;1.08;;;20.00;99.90;;;;;;5021186;28;20179;-62
2022/09/15 11:39:12;;;;;;;3.88;1.40;;;20.00;99.90;;;;;;5016751;28;20191;-61
2022/09/15 11:41:44;;;;;;;4.68;1.00;;;19.80;99.90;;;;;;5013597;28;20674;-61
2022/09/15 11:44:32;;;;;;;1.58;1.20;;;20.00;99.90;;;;;;5023467;28;20257;-61
2022/09/15 11:47:24;;;;;;;3.05;1.27;;;20.00;99.90;;;;;;5024270;28;20536;-62
2022/09/15 11:50:02;;;;;;;3.85;1.75;;;20.00;99.90;;;;;;5017090;28;20193;-63
2022/09/15 11:53:01;;;;;;;2.15;0.90;;;20.00;99.90;;;;;;5028588;28;20598;-63
2022/09/15 11:55:29;;;;;;;3.08;0.90;;;19.90;99.90;;;;;;5022185;28;20632;-63
2022/09/15 11:58:04;;;;;;;2.40;0.90;;;19.70;99.90;;;;;;5017910;28;20215;-62
2022/09/15 12:00:30;;;;;;;2.75;1.00;;;19.30;99.90;;;;;;5032879;28;20181;-62
2022/09/15 12:03:33;;;;;;;2.63;1.00;;;19.20;99.90;;;;;;5021567;28;20222;-61
2022/09/15 12:06:06;;;;;;;1.35;0.90;;;18.90;99.90;;;;;;5020318;28;20183;-62
2022/09/15 12:08:41;;;;;;;1.95;1.25;;;18.90;99.90;;;;;;5015384;28;20179;-62
2022/09/15 12:11:21;;;;;;;1.20;0.55;;;19.10;99.90;;;;;;5025254;28;20184;-61
2022/09/15 12:13:47;;;;;;;1.67;0.73;;;19.20;99.90;;;;;;5029376;28;20190;-62
2022/09/15 12:16:14;;;;;;;1.13;0.77;;;19.40;99.90;;;;;;5022538;28;20191;-62
2022/09/15 12:18:54;;;;;;;2.85;1.00;;;19.80;99.90;;;;;;5027456;28;20604;-62
2022/09/15 12:21:54;;;;;;;1.35;1.23;;;20.10;99.90;;;;;;5015499;28;20179;-62
2022/09/15 12:24:51;;;;;;;0.68;0.60;;;20.60;99.90;;;;;;5020316;28;20284;-62
2022/09/15 12:27:19;;;;;;;0.80;0.80;;;20.70;99.90;;;;;;5029656;28;20179;-63
2022/09/15 12:29:49;;;;;;;5.32;1.08;;;20.90;99.90;;;;;;5027685;28;20213;-63
2022/09/15 12:32:33;;;;;;;1.58;0.82;;;21.00;99.90;;;;;;5029755;28;20191;-63
2022/09/15 12:35:05;;;;;;;0.75;0.75;;;21.00;99.90;;;;;;5028122;28;20182;-63
2022/09/15 12:37:34;;;;;;;1.60;0.82;;;20.80;99.90;;;;;;5025658;28;20229;-63
2022/09/15 12:40:00;;;;;;;0.55;0.55;;;20.70;99.90;;;;;;5027310;28;20174;-63
2022/09/15 12:42:30;;;;;;;0.50;0.50;;;20.30;99.90;;;;;;5029408;28;20207;-63
2022/09/15 12:45:19;;;;;;;0.50;0.50;;;20.30;99.90;;;;;;5029131;28;20562;-63
2022/09/15 12:47:54;;;;;;;1.38;0.80;;;20.20;99.90;;;;;;5030583;28;20179;-63
2022/09/15 12:50:39;;;;;;;2.50;0.70;;;20.20;99.90;;;;;;5029457;28;20178;-63
2022/09/15 12:53:20;;;;;;;2.97;1.45;;;20.30;99.90;;;;;;5033132;28;20269;-63
2022/09/15 12:55:55;;;;;;;1.63;1.52;;;20.10;99.90;;;;;;5025873;28;20225;-63
2022/09/15 12:58:30;;;;;;;1.40;0.90;;;20.00;99.90;;;;;;5025934;28;20171;-63